createdAt,value
2022-10-24T00:01:38.207Z,24.08
2022-10-24T00:04:24.068Z,20.02
2022-10-24T00:07:10.506Z,22.58
2022-10-24T00:09:56.361Z,19.52
2022-10-24T00:12:44.002Z,20.63
2022-10-24T00:15:30.555Z,19.80
2022-10-24T00:18:17.048Z,25.38
2022-10-24T00:21:03.712Z,23.52
2022-10-24T00:23:49.745Z,21.30
2022-10-24T00:26:36.273Z,21.90
2022-10-24T00:29:22.221Z,20.83
2022-10-24T00:32:08.139Z,20.85
2022-10-24T00:34:53.972Z,19.65
2022-10-24T00:37:39.777Z,19.20
2022-10-24T00:40:25.762Z,19.20
2022-10-24T00:43:18.212Z,18.98
2022-10-24T00:46:04.297Z,17.52
2022-10-24T00:48:52.858Z,26.20
2022-10-24T00:51:38.590Z,19.70
2022-10-24T00:54:24.822Z,21.30
2022-10-24T00:57:28.366Z,18.05
2022-10-24T01:00:21.989Z,22.67
2022-10-24T01:03:10.908Z,20.08
2022-10-24T01:06:24.542Z,17.58
2022-10-24T01:12:34.458Z,20.13
2022-10-24T01:15:36.952Z,17.30
2022-10-24T01:19:02.682Z,15.88
2022-10-24T01:22:18.501Z,17.63
2022-10-24T01:25:16.137Z,15.90
2022-10-24T01:28:11.360Z,13.68
2022-10-24T01:31:04.901Z,17.45
2022-10-24T01:33:56.428Z,17.80
2022-10-24T01:36:53.309Z,16.13
2022-10-24T01:40:01.725Z,13.85
2022-10-24T01:42:49.102Z,17.10
2022-10-24T01:45:36.989Z,14.48
2022-10-24T01:48:24.904Z,16.65
2022-10-24T01:51:12.041Z,17.02
2022-10-24T01:53:58.599Z,16.67
2022-10-24T01:56:44.551Z,17.58
2022-10-24T01:59:30.501Z,19.52
2022-10-24T02:02:22.269Z,19.33
2022-10-24T02:05:12.917Z,15.30
2022-10-24T02:08:04.812Z,17.08
2022-10-24T02:10:57.391Z,17.42
2022-10-24T02:13:50.966Z,15.80
2022-10-24T02:16:36.913Z,20.30
2022-10-24T02:19:22.913Z,18.15
2022-10-24T02:22:24.329Z,16.38
2022-10-24T02:25:14.376Z,16.73
2022-10-24T02:28:19.501Z,13.95
2022-10-24T02:31:16.585Z,16.35
2022-10-24T02:34:04.609Z,17.92
2022-10-24T02:36:53.396Z,15.48
2022-10-24T02:39:41.078Z,17.98
2022-10-24T02:45:20.046Z,16.30
2022-10-24T02:48:09.312Z,12.23
2022-10-24T02:50:55.556Z,14.48
2022-10-24T02:53:41.829Z,17.60
2022-10-24T02:56:28.424Z,19.15
2022-10-24T02:59:14.547Z,16.55
2022-10-24T03:02:00.470Z,17.90
2022-10-24T03:04:46.388Z,19.25
2022-10-24T03:07:32.536Z,16.48
2022-10-24T03:10:18.687Z,14.90
2022-10-24T03:13:04.854Z,17.15
2022-10-24T03:15:50.959Z,15.38
2022-10-24T03:18:36.826Z,15.93
2022-10-24T03:21:23.705Z,16.45
2022-10-24T03:24:10.130Z,17.65
2022-10-24T03:26:56.347Z,13.93
2022-10-24T03:29:42.271Z,15.95
2022-10-24T03:32:28.491Z,13.80
2022-10-24T03:35:14.610Z,13.50
2022-10-24T03:38:00.912Z,14.35
2022-10-24T03:40:47.236Z,18.98
2022-10-24T03:43:33.033Z,11.73
2022-10-24T03:46:18.847Z,17.77
2022-10-24T03:49:04.640Z,16.23
2022-10-24T03:51:50.480Z,15.20
2022-10-24T03:54:36.410Z,20.98
2022-10-24T04:00:13.249Z,14.27
2022-10-24T04:02:59.390Z,16.38
2022-10-24T04:05:45.224Z,15.52
2022-10-24T04:08:31.014Z,16.60
2022-10-24T04:11:16.932Z,14.63
2022-10-24T04:16:53.452Z,20.67
2022-10-24T04:19:39.402Z,15.60
2022-10-24T04:22:25.160Z,16.33
2022-10-24T04:25:10.964Z,18.65
2022-10-24T04:27:56.916Z,20.23
2022-10-24T04:33:36.339Z,16.08
2022-10-24T04:36:22.246Z,16.25
2022-10-24T04:39:08.072Z,18.60
2022-10-24T04:41:54.342Z,13.40
2022-10-24T04:44:40.467Z,16.88
2022-10-24T04:47:26.490Z,14.98
2022-10-24T04:50:12.241Z,19.45
2022-10-24T04:52:58.145Z,12.25
2022-10-24T04:55:44.874Z,17.02
2022-10-24T04:58:30.885Z,18.83
2022-10-24T05:01:16.828Z,15.10
2022-10-24T05:06:53.596Z,17.33
2022-10-24T05:09:39.451Z,15.50
2022-10-24T05:12:25.433Z,23.30
2022-10-24T05:15:11.661Z,18.00
2022-10-24T05:17:58.965Z,18.10
2022-10-24T05:20:44.903Z,20.52
2022-10-24T05:23:30.954Z,16.08
2022-10-24T05:26:16.821Z,21.58
2022-10-24T05:29:02.537Z,19.58
2022-10-24T05:31:48.427Z,27.88
2022-10-24T05:34:34.385Z,19.00
2022-10-24T05:37:20.250Z,23.08
2022-10-24T05:40:08.668Z,16.35
2022-10-24T05:42:54.565Z,25.13
2022-10-24T05:45:40.455Z,19.77
2022-10-24T05:48:26.269Z,21.67
2022-10-24T05:51:12.064Z,25.88
2022-10-24T05:53:58.938Z,21.88
2022-10-24T05:56:44.687Z,23.92
2022-10-24T05:59:30.476Z,27.30
2022-10-24T06:02:20.667Z,28.67
2022-10-24T06:05:08.201Z,19.42
2022-10-24T06:07:54.437Z,23.17
2022-10-24T06:10:40.208Z,23.55
2022-10-24T06:13:26.103Z,18.05
2022-10-24T06:16:12.053Z,19.85
2022-10-24T06:18:58.243Z,20.48
2022-10-24T06:21:43.977Z,21.83
2022-10-24T06:24:29.792Z,14.60
2022-10-24T06:27:15.865Z,20.98
2022-10-24T06:30:02.170Z,26.55
2022-10-24T06:32:48.128Z,29.80
2022-10-24T06:35:34.489Z,22.73
2022-10-24T06:38:20.487Z,30.58
2022-10-24T06:41:08.530Z,25.75
2022-10-24T06:43:56.422Z,24.45
2022-10-24T06:46:42.360Z,27.92
2022-10-24T06:49:28.124Z,26.25
2022-10-24T06:52:14.042Z,24.65
2022-10-24T06:55:00.035Z,35.72
2022-10-24T06:57:46.122Z,34.10
2022-10-24T07:00:33.471Z,34.75
2022-10-24T07:03:19.234Z,32.40
2022-10-24T07:09:10.247Z,31.00
2022-10-24T07:11:59.550Z,36.93
2022-10-24T07:14:45.392Z,30.08
2022-10-24T07:17:31.516Z,30.25
2022-10-24T07:20:17.902Z,40.10
2022-10-24T07:23:03.704Z,39.83
2022-10-24T07:25:49.643Z,38.75
2022-10-24T07:28:36.363Z,31.88
2022-10-24T07:31:24.573Z,35.08
2022-10-24T07:34:10.867Z,36.83
2022-10-24T07:36:56.941Z,26.55
2022-10-24T07:39:43.227Z,24.75
2022-10-24T07:42:29.185Z,26.88
2022-10-24T07:45:15.328Z,25.30
2022-10-24T07:48:01.673Z,31.77
2022-10-24T07:50:49.121Z,38.42
2022-10-24T07:53:35.712Z,31.27
2022-10-24T07:56:22.162Z,33.53
2022-10-24T07:59:09.386Z,31.38
2022-10-24T08:01:59.884Z,30.92
2022-10-24T08:04:45.796Z,39.72
2022-10-24T08:07:32.475Z,30.10
2022-10-24T08:10:18.672Z,32.30
2022-10-24T08:13:04.765Z,36.70
2022-10-24T08:15:51.078Z,34.35
2022-10-24T08:18:38.857Z,47.30
2022-10-24T08:21:26.830Z,35.53
2022-10-24T08:24:12.803Z,34.17
2022-10-24T08:26:59.681Z,41.22
2022-10-24T08:29:45.750Z,31.30
2022-10-24T08:32:31.624Z,41.35
2022-10-24T08:35:19.081Z,35.65
2022-10-24T08:38:04.824Z,36.40
2022-10-24T08:40:50.949Z,29.35
2022-10-24T08:43:37.182Z,30.17
2022-10-24T08:46:49.100Z,27.98
2022-10-24T08:49:41.896Z,25.00
2022-10-24T08:52:48.844Z,42.35
2022-10-24T08:55:48.611Z,26.08
2022-10-24T08:58:44.242Z,43.90
2022-10-24T09:01:36.333Z,39.75
2022-10-24T09:04:25.365Z,40.22
2022-10-24T09:07:21.217Z,30.92
2022-10-24T09:10:20.974Z,30.48
2022-10-24T09:13:17.300Z,27.95
2022-10-24T09:16:04.138Z,28.10
2022-10-24T09:18:53.507Z,28.45
2022-10-24T09:21:41.726Z,29.67
2022-10-24T09:24:37.987Z,32.40
2022-10-24T09:27:29.639Z,27.92
2022-10-24T09:30:19.806Z,28.27
2022-10-24T09:33:26.048Z,30.30
2022-10-24T09:36:14.642Z,33.85
2022-10-24T09:39:26.227Z,34.33
2022-10-24T09:42:22.011Z,29.17
2022-10-24T09:45:27.991Z,32.97
2022-10-24T09:48:29.290Z,31.25
2022-10-24T09:51:33.582Z,36.47
2022-10-24T09:54:19.405Z,32.83
2022-10-24T09:57:11.458Z,47.25
2022-10-24T10:00:01.585Z,35.95
2022-10-24T10:02:58.142Z,34.83
2022-10-24T10:05:55.992Z,36.83
2022-10-24T10:08:42.709Z,38.47
2022-10-24T10:11:35.163Z,41.53
2022-10-24T10:14:26.791Z,46.20
2022-10-24T10:17:21.304Z,36.45
2022-10-24T10:20:09.969Z,35.38
2022-10-24T10:22:56.100Z,33.08
2022-10-24T10:25:42.099Z,27.05
2022-10-24T10:28:27.766Z,28.20
2022-10-24T10:31:14.038Z,24.60
2022-10-24T10:33:59.759Z,38.53
2022-10-24T10:37:08.490Z,28.70
2022-10-24T10:40:00.520Z,32.83
2022-10-24T10:43:06.049Z,33.45
2022-10-24T10:46:12.100Z,37.08
2022-10-24T10:49:10.883Z,31.80
2022-10-24T10:52:06.850Z,25.00
2022-10-24T10:55:19.237Z,27.15
2022-10-24T10:58:31.918Z,30.33
2022-10-24T11:01:23.862Z,30.40
2022-10-24T11:04:41.334Z,32.70
2022-10-24T11:07:45.477Z,33.05
2022-10-24T11:10:43.302Z,41.17
2022-10-24T11:13:37.166Z,30.48
2022-10-24T11:16:26.382Z,24.85
2022-10-24T11:19:26.329Z,28.55
2022-10-24T11:22:23.124Z,26.67
2022-10-24T11:25:19.357Z,34.72
2022-10-24T11:28:37.755Z,44.72
2022-10-24T11:31:27.736Z,36.83
2022-10-24T11:34:19.523Z,36.83
2022-10-24T11:37:38.420Z,27.65
2022-10-24T11:40:25.657Z,27.95
2022-10-24T11:43:28.111Z,35.90
2022-10-24T11:46:20.796Z,31.50
2022-10-24T11:52:01.819Z,28.23
2022-10-24T11:55:00.110Z,33.55
2022-10-24T11:57:50.102Z,36.75
2022-10-24T12:01:05.345Z,24.20
2022-10-24T12:03:57.366Z,37.30
2022-10-24T12:07:14.478Z,40.22
2022-10-24T12:10:25.542Z,32.83
2022-10-24T12:13:37.850Z,33.78
2022-10-24T12:17:05.940Z,30.58
2022-10-24T12:19:52.523Z,29.85
2022-10-24T12:22:41.519Z,31.83
2022-10-24T12:25:28.937Z,30.13
2022-10-24T12:28:23.357Z,44.20
2022-10-24T12:31:14.120Z,36.60
2022-10-24T12:34:23.093Z,36.40
2022-10-24T12:37:32.473Z,32.40
2022-10-24T12:40:46.640Z,34.38
2022-10-24T12:43:40.302Z,35.88
2022-10-24T12:46:27.272Z,38.28
2022-10-24T12:49:29.376Z,26.75
2022-10-24T12:52:30.695Z,35.67
2022-10-24T12:55:39.910Z,35.03
2022-10-24T12:58:30.211Z,28.35
2022-10-24T13:01:27.494Z,31.88
2022-10-24T13:04:58.550Z,27.25
2022-10-24T13:08:12.481Z,37.08
2022-10-24T13:11:07.692Z,25.00
2022-10-24T13:13:56.478Z,33.63
2022-10-24T13:16:59.116Z,40.40
2022-10-24T13:22:35.504Z,28.27
2022-10-24T13:25:29.776Z,27.75
2022-10-24T13:28:24.896Z,32.10
2022-10-24T13:31:17.427Z,27.98
2022-10-24T13:34:23.184Z,24.17
2022-10-24T13:37:12.654Z,34.55
2022-10-24T13:40:09.697Z,32.88
2022-10-24T13:43:03.817Z,34.50
2022-10-24T13:45:52.782Z,34.67
2022-10-24T13:48:45.901Z,32.25
2022-10-24T13:51:35.168Z,23.50
2022-10-24T13:54:31.483Z,34.63
2022-10-24T13:57:37.510Z,31.25
2022-10-24T14:00:30.500Z,28.45
2022-10-24T14:03:19.886Z,27.58
2022-10-24T14:06:08.486Z,23.45
2022-10-24T14:09:06.580Z,32.53
2022-10-24T14:11:56.476Z,42.05
2022-10-24T14:14:42.521Z,39.30
2022-10-24T14:17:33.738Z,49.30
2022-10-24T14:20:25.677Z,45.33
2022-10-24T14:23:34.766Z,45.33
2022-10-24T14:26:21.726Z,45.65
2022-10-24T14:29:23.072Z,45.53
2022-10-24T14:32:14.606Z,45.67
2022-10-24T14:37:49.162Z,40.45
2022-10-24T14:40:35.475Z,43.80
2022-10-24T14:43:26.227Z,48.70
2022-10-24T14:46:12.394Z,43.80
2022-10-24T14:49:02.078Z,49.22
2022-10-24T14:55:03.224Z,49.28
2022-10-24T14:57:51.606Z,44.22
2022-10-24T15:00:39.393Z,51.35
2022-10-24T15:03:27.155Z,60.28
2022-10-24T15:06:28.758Z,68.72
2022-10-24T15:09:18.230Z,55.63
2022-10-24T15:12:04.453Z,57.45
2022-10-24T15:14:53.430Z,54.80
2022-10-24T15:17:39.593Z,64.05
2022-10-24T15:20:30.076Z,60.83
2022-10-24T15:23:26.885Z,51.55
2022-10-24T15:26:20.691Z,57.28
2022-10-24T15:29:13.071Z,53.17
2022-10-24T15:31:59.395Z,56.20
2022-10-24T15:34:45.335Z,64.22
2022-10-24T15:37:31.677Z,59.90
2022-10-24T15:40:21.948Z,56.15
2022-10-24T15:43:12.153Z,55.97
2022-10-24T15:45:58.150Z,68.28
2022-10-24T15:48:44.690Z,68.32
2022-10-24T15:51:31.091Z,76.07
2022-10-24T15:54:20.314Z,79.78
2022-10-24T15:57:06.461Z,105.10
2022-10-24T15:59:52.547Z,98.38
2022-10-24T16:02:42.967Z,65.93
2022-10-24T16:05:31.943Z,47.33
2022-10-24T16:08:19.834Z,44.15
2022-10-24T16:11:09.127Z,39.60
2022-10-24T16:13:57.351Z,42.22
2022-10-24T16:16:43.645Z,37.90
2022-10-24T16:19:30.111Z,33.63
2022-10-24T16:22:16.104Z,40.05
2022-10-24T16:25:02.105Z,40.45
2022-10-24T16:27:50.731Z,33.88
2022-10-24T16:30:40.427Z,43.90
2022-10-24T16:33:26.496Z,32.05
2022-10-24T16:36:12.610Z,35.83
2022-10-24T16:38:58.710Z,28.30
2022-10-24T16:41:46.341Z,37.28
2022-10-24T16:44:35.359Z,37.13
2022-10-24T16:47:21.297Z,41.88
2022-10-24T16:50:07.945Z,42.60
2022-10-24T16:52:55.324Z,48.92
2022-10-24T16:55:47.171Z,43.92
2022-10-24T16:58:33.457Z,54.45
2022-10-24T17:01:19.843Z,48.80
2022-10-24T17:04:05.952Z,43.97
2022-10-24T17:06:51.819Z,44.72
2022-10-24T17:09:37.803Z,58.70
2022-10-24T17:12:24.147Z,60.55
2022-10-24T17:15:11.461Z,54.47
2022-10-24T17:17:57.293Z,53.80
2022-10-24T17:20:44.450Z,51.17
2022-10-24T17:23:30.965Z,57.42
2022-10-24T17:26:17.380Z,52.60
2022-10-24T17:29:04.042Z,51.05
2022-10-24T17:31:50.246Z,46.42
2022-10-24T17:34:36.924Z,50.58
2022-10-24T17:37:35.222Z,43.38
2022-10-24T17:40:24.136Z,48.28
2022-10-24T17:43:25.691Z,52.13
2022-10-24T17:46:12.713Z,47.42
2022-10-24T17:48:58.934Z,45.58
2022-10-24T17:51:47.262Z,37.50
2022-10-24T17:54:33.318Z,48.78
2022-10-24T17:57:19.482Z,49.17
2022-10-24T18:00:08.442Z,44.35
2022-10-24T18:02:57.230Z,43.42
2022-10-24T18:05:43.267Z,42.08
2022-10-24T18:08:29.265Z,42.20
2022-10-24T18:11:15.035Z,43.97
2022-10-24T18:14:00.848Z,56.28
2022-10-24T18:16:46.891Z,56.92
2022-10-24T18:19:32.801Z,54.30
2022-10-24T18:22:18.853Z,46.35
2022-10-24T18:25:06.775Z,52.78
2022-10-24T18:27:52.599Z,47.85
2022-10-24T18:30:38.705Z,43.85
2022-10-24T18:33:24.787Z,52.22
2022-10-24T18:36:17.790Z,48.00
2022-10-24T18:39:04.376Z,48.95
2022-10-24T18:42:02.691Z,55.47
2022-10-24T18:44:51.028Z,56.65
2022-10-24T18:47:37.180Z,50.17
2022-10-24T18:50:24.838Z,49.08
2022-10-24T18:53:23.873Z,49.88
2022-10-24T18:56:10.288Z,59.80
2022-10-24T18:58:57.913Z,49.03
2022-10-24T19:02:02.254Z,44.08
2022-10-24T19:04:54.874Z,49.60
2022-10-24T19:07:41.132Z,53.65
2022-10-24T19:10:28.296Z,57.67
2022-10-24T19:13:14.938Z,70.68
2022-10-24T19:16:04.140Z,56.80
2022-10-24T19:18:54.928Z,59.28
2022-10-24T19:21:40.936Z,56.60
2022-10-24T19:24:27.050Z,71.95
2022-10-24T19:27:13.677Z,77.53
2022-10-24T19:29:59.647Z,79.85
2022-10-24T19:32:45.747Z,78.18
2022-10-24T19:35:31.956Z,69.18
2022-10-24T19:38:18.308Z,59.33
2022-10-24T19:41:07.878Z,53.00
2022-10-24T19:43:54.751Z,47.72
2022-10-24T19:46:40.945Z,41.10
2022-10-24T19:49:26.899Z,52.10
2022-10-24T19:52:14.773Z,43.10
2022-10-24T19:55:01.407Z,50.80
2022-10-24T19:57:48.043Z,52.83
2022-10-24T20:00:34.561Z,57.78
2022-10-24T20:03:20.726Z,43.80
2022-10-24T20:06:07.187Z,49.88
2022-10-24T20:08:53.222Z,46.25
2022-10-24T20:11:39.450Z,45.28
2022-10-24T20:14:25.399Z,43.63
2022-10-24T20:17:11.906Z,43.65
2022-10-24T20:19:58.200Z,46.85
2022-10-24T20:22:44.228Z,43.88
2022-10-24T20:25:30.403Z,40.08
2022-10-24T20:28:16.927Z,39.22
2022-10-24T20:31:03.635Z,39.65
2022-10-24T20:33:50.800Z,43.10
2022-10-24T20:36:44.415Z,43.97
2022-10-24T20:39:30.483Z,48.47
2022-10-24T20:42:16.973Z,45.15
2022-10-24T20:45:03.297Z,46.67
2022-10-24T20:47:49.419Z,41.20
2022-10-24T20:50:36.111Z,46.55
2022-10-24T20:53:22.618Z,43.70
2022-10-24T20:56:17.528Z,48.70
2022-10-24T20:59:03.960Z,47.67
2022-10-24T21:01:50.218Z,43.58
2022-10-24T21:04:36.653Z,51.58
2022-10-24T21:07:22.904Z,46.28
2022-10-24T21:10:09.121Z,46.13
2022-10-24T21:12:55.254Z,46.63
2022-10-24T21:15:41.602Z,59.50
2022-10-24T21:18:27.464Z,50.05
2022-10-24T21:21:14.609Z,46.65
2022-10-24T21:24:04.346Z,43.65
2022-10-24T21:26:53.792Z,48.28
2022-10-24T21:29:39.703Z,50.85
2022-10-24T21:32:25.557Z,46.83
2022-10-24T21:35:11.585Z,42.70
2022-10-24T21:37:57.337Z,42.05
2022-10-24T21:40:43.345Z,42.50
2022-10-24T21:43:32.108Z,42.65
2022-10-24T21:46:23.071Z,49.97
2022-10-24T21:49:09.352Z,45.63
2022-10-24T21:51:55.664Z,40.92
2022-10-24T21:54:41.619Z,36.17
2022-10-24T21:57:29.101Z,47.70
2022-10-24T22:00:15.629Z,42.85
2022-10-24T22:03:01.599Z,40.30
2022-10-24T22:05:57.284Z,40.70
2022-10-24T22:08:44.141Z,41.60
2022-10-24T22:11:31.860Z,39.28
2022-10-24T22:14:18.246Z,42.95
2022-10-24T22:17:04.285Z,44.95
2022-10-24T22:19:50.097Z,40.38
2022-10-24T22:22:36.157Z,52.35
2022-10-24T22:25:22.003Z,40.38
2022-10-24T22:28:08.114Z,36.28
2022-10-24T22:30:54.924Z,37.63
2022-10-24T22:33:42.234Z,39.88
2022-10-24T22:36:47.188Z,36.85
2022-10-24T22:39:33.619Z,39.33
2022-10-24T22:42:20.524Z,39.72
2022-10-24T22:45:07.111Z,36.80
2022-10-24T22:48:02.545Z,32.33
2022-10-24T22:50:53.998Z,33.45
2022-10-24T22:53:40.168Z,43.97
2022-10-24T22:56:33.441Z,37.58
2022-10-24T22:59:20.041Z,32.35
2022-10-24T23:02:25.485Z,39.35
2022-10-24T23:05:37.953Z,34.80
2022-10-24T23:08:38.912Z,36.07
2022-10-24T23:11:25.056Z,39.78
2022-10-24T23:14:12.275Z,35.70
2022-10-24T23:17:00.723Z,37.80
2022-10-24T23:19:46.980Z,34.40
2022-10-24T23:22:33.166Z,33.47
2022-10-24T23:25:19.669Z,29.40
2022-10-24T23:28:13.830Z,30.70
2022-10-24T23:31:00.238Z,33.83
2022-10-24T23:33:46.671Z,29.23
2022-10-24T23:36:32.812Z,32.45
2022-10-24T23:42:10.546Z,35.60
2022-10-24T23:44:56.855Z,35.47
2022-10-24T23:47:52.253Z,33.88
2022-10-24T23:51:05.515Z,30.08
2022-10-24T23:53:54.094Z,31.80
2022-10-24T23:56:40.672Z,31.95
2022-10-24T23:59:26.515Z,37.20
